createdAt,value
2019-05-23T00:01:05.653Z,72.92
2019-05-23T00:03:36.529Z,72.99
2019-05-23T00:06:04.775Z,71.78
2019-05-23T00:08:32.247Z,71.99
2019-05-23T00:11:01.981Z,71.94
2019-05-23T00:13:44.606Z,71.49
2019-05-23T00:16:12.048Z,71.18
2019-05-23T00:18:39.534Z,70.57
2019-05-23T00:21:06.970Z,71.24
2019-05-23T00:23:34.421Z,71.84
2019-05-23T00:26:01.912Z,71.51
2019-05-23T00:28:29.962Z,70.93
2019-05-23T00:30:57.426Z,71.05
2019-05-23T00:33:25.696Z,71.62
2019-05-23T00:35:53.183Z,72.44
2019-05-23T00:38:21.082Z,72.40
2019-05-23T00:40:48.656Z,72.63
2019-05-23T00:43:16.216Z,72.62
2019-05-23T00:45:43.694Z,73.05
2019-05-23T00:48:11.118Z,73.03
2019-05-23T00:50:38.571Z,73.40
2019-05-23T00:53:06.086Z,73.34
2019-05-23T00:55:33.521Z,73.50
2019-05-23T00:58:00.980Z,73.78
2019-05-23T01:00:28.477Z,74.08
2019-05-23T01:02:55.941Z,74.31
2019-05-23T01:05:23.446Z,74.28
2019-05-23T01:07:50.869Z,74.52
2019-05-23T01:10:18.553Z,74.42
2019-05-23T01:12:45.858Z,74.31
2019-05-23T01:15:13.314Z,74.47
2019-05-23T01:17:40.750Z,74.64
2019-05-23T01:20:08.252Z,75.10
2019-05-23T01:22:35.706Z,75.07
2019-05-23T01:25:03.215Z,75.00
2019-05-23T01:27:31.234Z,74.39
2019-05-23T01:29:58.716Z,74.52
2019-05-23T01:32:29.553Z,74.41
2019-05-23T01:34:57.770Z,73.65
2019-05-23T01:37:25.470Z,73.40
2019-05-23T01:39:52.952Z,73.43
2019-05-23T01:42:20.417Z,72.50
2019-05-23T01:44:47.863Z,72.09
2019-05-23T01:47:16.184Z,72.26
2019-05-23T01:49:43.737Z,72.35
2019-05-23T01:52:11.195Z,72.61
2019-05-23T01:54:38.657Z,72.94
2019-05-23T01:57:06.126Z,72.93
2019-05-23T01:59:33.610Z,72.38
2019-05-23T02:02:01.992Z,72.11
2019-05-23T02:04:29.445Z,71.44
2019-05-23T02:06:57.038Z,70.73
2019-05-23T02:09:24.400Z,70.70
2019-05-23T02:11:51.874Z,71.32
2019-05-23T02:14:19.348Z,70.84
2019-05-23T02:16:46.794Z,70.66
2019-05-23T02:19:14.319Z,70.61
2019-05-23T02:21:41.763Z,72.19
2019-05-23T02:24:09.365Z,72.93
2019-05-23T02:26:36.721Z,72.06
2019-05-23T02:29:04.162Z,72.25
2019-05-23T02:31:32.506Z,72.85
2019-05-23T02:33:59.982Z,72.98
2019-05-23T02:36:27.428Z,73.66
2019-05-23T02:38:54.887Z,72.75
2019-05-23T02:41:25.211Z,72.26
2019-05-23T02:43:52.665Z,71.66
2019-05-23T02:46:23.551Z,71.40
2019-05-23T02:48:51.828Z,71.51
2019-05-23T02:51:24.705Z,72.00
2019-05-23T02:53:52.137Z,71.66
2019-05-23T02:56:20.673Z,71.37
2019-05-23T02:58:54.639Z,71.18
2019-05-23T03:01:26.613Z,70.89
2019-05-23T03:03:54.060Z,70.24
2019-05-23T03:06:21.496Z,70.46
2019-05-23T03:08:48.944Z,70.53
2019-05-23T03:11:31.964Z,70.69
2019-05-23T03:13:59.427Z,70.36
2019-05-23T03:16:26.888Z,70.23
2019-05-23T03:18:54.343Z,70.12
2019-05-23T03:21:21.789Z,70.05
2019-05-23T03:23:49.213Z,69.93
2019-05-23T03:26:20.927Z,70.06
2019-05-23T03:28:48.387Z,70.06
2019-05-23T03:31:29.695Z,70.09
2019-05-23T03:33:43.345Z,70.01
2019-05-23T03:36:10.805Z,70.14
2019-05-23T03:38:38.282Z,70.66
2019-05-23T03:41:05.719Z,71.46
2019-05-23T03:43:34.078Z,72.29
2019-05-23T03:46:01.981Z,71.92
2019-05-23T03:48:29.440Z,71.54
2019-05-23T03:50:56.892Z,71.28
2019-05-23T03:53:24.348Z,71.40
2019-05-23T03:55:51.808Z,71.88
2019-05-23T03:58:19.251Z,71.87
2019-05-23T04:00:48.684Z,71.87
2019-05-23T04:03:16.143Z,71.53
2019-05-23T04:05:43.639Z,71.74
2019-05-23T04:08:11.087Z,72.16
2019-05-23T04:10:38.567Z,73.50
2019-05-23T04:13:06.037Z,73.89
2019-05-23T04:15:33.502Z,74.06
2019-05-23T04:18:00.966Z,74.19
2019-05-23T04:20:28.444Z,74.26
2019-05-23T04:22:55.905Z,74.13
2019-05-23T04:25:23.381Z,73.60
2019-05-23T04:27:50.841Z,73.77
2019-05-23T04:30:18.290Z,73.38
2019-05-23T04:32:45.755Z,73.23
2019-05-23T04:35:13.220Z,72.97
2019-05-23T04:37:40.680Z,73.00
2019-05-23T04:40:08.131Z,73.14
2019-05-23T04:42:35.583Z,73.45
2019-05-23T04:45:03.017Z,74.85
2019-05-23T04:47:30.456Z,74.48
2019-05-23T04:49:57.928Z,74.46
2019-05-23T04:52:25.384Z,74.69
2019-05-23T04:54:52.823Z,74.81
2019-05-23T04:57:20.276Z,75.78
2019-05-23T04:59:47.750Z,76.03
2019-05-23T05:02:25.315Z,75.26
2019-05-23T05:04:42.780Z,74.74
2019-05-23T05:07:10.234Z,74.34
2019-05-23T05:09:37.687Z,74.92
2019-05-23T05:12:06.092Z,74.59
2019-05-23T05:14:33.579Z,74.33
2019-05-23T05:17:01.058Z,74.66
2019-05-23T05:19:28.521Z,74.44
2019-05-23T05:21:56.031Z,74.25
2019-05-23T05:24:23.500Z,74.28
2019-05-23T05:26:51.652Z,75.54
2019-05-23T05:29:19.167Z,74.88
2019-05-23T05:31:46.705Z,74.61
2019-05-23T05:34:14.165Z,74.61
2019-05-23T05:36:41.621Z,74.65
2019-05-23T05:39:09.051Z,74.44
2019-05-23T05:41:36.619Z,74.40
2019-05-23T05:44:04.451Z,74.56
2019-05-23T05:46:31.923Z,74.44
2019-05-23T05:48:59.405Z,75.12
2019-05-23T05:51:26.857Z,74.30
2019-05-23T05:53:54.325Z,75.15
2019-05-23T05:56:21.811Z,75.52
2019-05-23T05:58:49.283Z,74.87
2019-05-23T06:01:32.874Z,75.12
2019-05-23T06:03:44.215Z,74.79
2019-05-23T06:06:12.490Z,75.32
2019-05-23T06:08:40.286Z,74.89
2019-05-23T06:11:07.790Z,74.66
2019-05-23T06:13:36.375Z,74.51
2019-05-23T06:16:03.921Z,74.28
2019-05-23T06:18:31.381Z,75.34
2019-05-23T06:20:58.827Z,75.25
2019-05-23T06:23:26.305Z,75.51
2019-05-23T06:25:53.766Z,75.44
2019-05-23T06:28:21.294Z,75.82
2019-05-23T06:30:48.746Z,75.51
2019-05-23T06:33:23.337Z,75.96
2019-05-23T06:35:43.684Z,74.97
2019-05-23T06:38:11.147Z,75.13
2019-05-23T06:40:38.626Z,75.49
2019-05-23T06:43:06.098Z,74.51
2019-05-23T06:45:33.533Z,74.66
2019-05-23T06:48:01.130Z,74.23
2019-05-23T06:50:28.617Z,71.27
2019-05-23T06:52:56.110Z,70.73
2019-05-23T06:55:23.719Z,70.71
2019-05-23T06:57:51.202Z,70.33
2019-05-23T07:00:18.667Z,70.59
2019-05-23T07:02:46.129Z,69.68
2019-05-23T07:05:13.554Z,69.17
2019-05-23T07:07:41.011Z,68.79
2019-05-23T07:10:08.492Z,68.78
2019-05-23T07:12:35.948Z,68.42
2019-05-23T07:15:03.460Z,68.59
2019-05-23T07:17:30.909Z,68.18
2019-05-23T07:19:58.356Z,67.66
2019-05-23T07:22:25.826Z,64.47
2019-05-23T07:24:58.051Z,63.65
2019-05-23T07:27:20.823Z,61.71
2019-05-23T07:29:48.294Z,59.43
2019-05-23T07:32:15.787Z,59.22
2019-05-23T07:34:43.239Z,55.58
2019-05-23T07:37:10.716Z,56.81
2019-05-23T07:39:39.018Z,54.67
2019-05-23T07:42:06.509Z,53.90
2019-05-23T07:44:47.476Z,54.25
2019-05-23T07:47:01.934Z,53.87
2019-05-23T07:49:29.383Z,55.03
2019-05-23T07:51:57.466Z,55.15
2019-05-23T07:54:24.926Z,54.23
2019-05-23T07:56:52.390Z,53.90
2019-05-23T07:59:19.857Z,51.01
2019-05-23T08:01:47.352Z,51.05
2019-05-23T08:04:21.464Z,50.54
2019-05-23T08:06:42.369Z,50.71
2019-05-23T08:09:09.795Z,50.80
2019-05-23T08:11:37.252Z,49.66
2019-05-23T08:14:04.693Z,49.69
2019-05-23T08:16:33.203Z,50.80
2019-05-23T08:19:00.823Z,51.35
2019-05-23T08:21:28.251Z,51.39
2019-05-23T08:23:55.714Z,50.83
2019-05-23T08:26:23.230Z,52.70
2019-05-23T08:29:12.680Z,51.37
2019-05-23T08:31:18.191Z,52.29
2019-05-23T08:33:45.647Z,51.91
2019-05-23T08:36:13.110Z,51.78
2019-05-23T08:38:40.563Z,52.58
2019-05-23T08:41:08.030Z,52.29
2019-05-23T08:43:35.501Z,51.59
2019-05-23T08:46:03.021Z,51.33
2019-05-23T08:48:30.417Z,52.57
2019-05-23T08:50:57.909Z,50.63
2019-05-23T08:53:25.368Z,49.65
2019-05-23T08:55:52.826Z,50.86
2019-05-23T08:58:20.289Z,51.01
2019-05-23T09:00:47.754Z,52.02
2019-05-23T09:03:15.196Z,51.23
2019-05-23T09:05:42.704Z,49.33
2019-05-23T09:08:10.718Z,50.71
2019-05-23T09:10:38.138Z,50.04
2019-05-23T09:13:05.588Z,49.54
2019-05-23T09:15:33.039Z,48.83
2019-05-23T09:18:00.530Z,50.80
2019-05-23T09:20:29.656Z,51.28
2019-05-23T09:22:57.256Z,51.24
2019-05-23T09:25:24.684Z,50.15
2019-05-23T09:27:52.169Z,48.75
2019-05-23T09:30:19.650Z,48.53
2019-05-23T09:32:47.110Z,49.22
2019-05-23T09:35:20.871Z,47.94
2019-05-23T09:37:42.076Z,47.12
2019-05-23T09:40:09.529Z,48.88
2019-05-23T09:42:37.029Z,49.06
2019-05-23T09:45:05.193Z,50.14
2019-05-23T09:47:32.644Z,48.96
2019-05-23T09:50:00.106Z,48.14
2019-05-23T09:52:27.567Z,48.20
2019-05-23T09:54:55.913Z,47.76
2019-05-23T09:57:23.379Z,47.71
2019-05-23T09:59:50.827Z,47.11
2019-05-23T10:02:18.288Z,47.62
2019-05-23T10:04:45.821Z,46.57
2019-05-23T10:07:13.269Z,46.96
2019-05-23T10:09:40.736Z,46.93
2019-05-23T10:12:08.214Z,47.39
2019-05-23T10:14:38.027Z,47.78
2019-05-23T10:17:05.447Z,46.89
2019-05-23T10:19:32.897Z,46.66
2019-05-23T10:22:00.348Z,47.80
2019-05-23T10:24:27.804Z,45.43
2019-05-23T10:26:55.272Z,46.33
2019-05-23T10:29:22.737Z,47.52
2019-05-23T10:31:50.201Z,46.26
2019-05-23T10:34:17.646Z,47.92
2019-05-23T10:36:45.103Z,46.30
2019-05-23T10:39:12.544Z,46.78
2019-05-23T10:41:40.008Z,45.65
2019-05-23T10:44:07.467Z,46.18
2019-05-23T10:46:34.941Z,45.01
2019-05-23T10:49:02.434Z,45.73
2019-05-23T10:51:29.880Z,45.46
2019-05-23T10:53:57.335Z,45.14
2019-05-23T10:56:24.782Z,45.37
2019-05-23T10:58:52.215Z,45.58
2019-05-23T11:01:19.666Z,45.00
2019-05-23T11:03:47.178Z,45.90
2019-05-23T11:06:16.712Z,44.86
2019-05-23T11:08:42.981Z,45.03
2019-05-23T11:11:14.203Z,44.81
2019-05-23T11:13:37.964Z,44.66
2019-05-23T11:16:05.429Z,44.68
2019-05-23T11:18:32.863Z,43.14
2019-05-23T11:21:00.342Z,43.38
2019-05-23T11:23:27.797Z,44.35
2019-05-23T11:25:55.263Z,44.35
2019-05-23T11:28:22.726Z,42.48
2019-05-23T11:30:51.902Z,42.68
2019-05-23T11:33:19.330Z,43.57
2019-05-23T11:35:46.794Z,43.71
2019-05-23T11:38:14.217Z,43.72
2019-05-23T11:40:41.660Z,43.49
2019-05-23T11:43:09.140Z,44.25
2019-05-23T11:45:45.870Z,44.56
2019-05-23T11:48:06.448Z,44.54
2019-05-23T11:50:33.921Z,43.59
2019-05-23T11:53:01.363Z,42.91
2019-05-23T11:55:28.865Z,42.00
2019-05-23T11:57:56.300Z,42.11
2019-05-23T12:00:44.507Z,42.54
2019-05-23T12:03:11.952Z,42.46
2019-05-23T12:05:39.419Z,41.59
2019-05-23T12:08:06.890Z,41.81
2019-05-23T12:10:34.357Z,43.19
2019-05-23T12:13:01.857Z,42.55
2019-05-23T12:15:29.293Z,42.62
2019-05-23T12:17:56.824Z,42.64
2019-05-23T12:20:24.369Z,43.78
2019-05-23T12:22:51.912Z,44.34
2019-05-23T12:25:22.465Z,45.91
2019-05-23T12:27:47.142Z,44.87
2019-05-23T12:30:15.165Z,43.20
2019-05-23T12:32:42.659Z,42.72
2019-05-23T12:35:12.247Z,44.98
2019-05-23T12:37:39.598Z,45.14
2019-05-23T12:40:07.056Z,43.58
2019-05-23T12:42:34.529Z,43.68
2019-05-23T12:45:02.198Z,41.85
2019-05-23T12:47:29.478Z,41.48
2019-05-23T12:49:56.959Z,43.42
2019-05-23T12:52:24.428Z,43.92
2019-05-23T12:54:51.880Z,43.98
2019-05-23T12:57:19.354Z,45.08
2019-05-23T12:59:46.818Z,45.20
2019-05-23T13:02:14.292Z,43.87
2019-05-23T13:04:41.751Z,44.70
2019-05-23T13:07:09.230Z,44.48
2019-05-23T13:09:36.702Z,44.58
2019-05-23T13:12:04.628Z,44.57
2019-05-23T13:14:32.020Z,44.54
2019-05-23T13:17:00.975Z,45.18
2019-05-23T13:19:26.957Z,46.34
2019-05-23T13:21:54.413Z,43.23
2019-05-23T13:24:21.881Z,44.41
2019-05-23T13:26:50.597Z,44.53
2019-05-23T13:29:18.123Z,44.14
2019-05-23T13:31:46.265Z,44.08
2019-05-23T13:34:13.732Z,45.25
2019-05-23T13:36:41.198Z,44.25
2019-05-23T13:39:08.654Z,44.60
2019-05-23T13:41:36.091Z,43.66
2019-05-23T13:44:03.524Z,43.30
2019-05-23T13:46:30.977Z,42.82
2019-05-23T13:48:58.755Z,44.26
2019-05-23T13:51:25.923Z,44.07
2019-05-23T13:53:53.940Z,45.16
2019-05-23T13:56:21.694Z,45.11
2019-05-23T13:58:49.126Z,43.08
2019-05-23T14:01:16.860Z,44.20
2019-05-23T14:03:44.355Z,44.58
2019-05-23T14:06:11.812Z,44.40
2019-05-23T14:08:39.265Z,43.80
2019-05-23T14:11:06.739Z,43.20
2019-05-23T14:13:34.278Z,43.40
2019-05-23T14:16:01.712Z,43.36
2019-05-23T14:18:29.171Z,43.03
2019-05-23T14:20:56.618Z,43.25
2019-05-23T14:23:28.053Z,43.95
2019-05-23T14:25:55.503Z,43.89
2019-05-23T14:28:22.990Z,44.30
2019-05-23T14:30:51.801Z,42.74
2019-05-23T14:33:33.972Z,43.16
2019-05-23T14:36:01.744Z,42.31
2019-05-23T14:38:31.070Z,42.17
2019-05-23T14:40:56.696Z,43.09
2019-05-23T14:43:25.652Z,41.80
2019-05-23T14:45:54.866Z,40.67
2019-05-23T14:48:28.097Z,41.11
2019-05-23T14:50:57.697Z,41.75
2019-05-23T14:53:29.621Z,40.05
2019-05-23T14:55:57.100Z,40.26
2019-05-23T14:58:24.551Z,40.49
2019-05-23T15:00:52.019Z,39.38
2019-05-23T15:03:20.213Z,40.38
2019-05-23T15:05:47.963Z,40.27
2019-05-23T15:08:16.111Z,39.30
2019-05-23T15:10:43.578Z,39.65
2019-05-23T15:13:11.423Z,38.15
2019-05-23T15:15:38.882Z,39.17
2019-05-23T15:18:06.326Z,36.68
2019-05-23T15:20:33.773Z,37.61
2019-05-23T15:23:01.195Z,36.21
2019-05-23T15:25:28.641Z,36.42
2019-05-23T15:27:56.921Z,35.35
2019-05-23T15:30:24.377Z,35.10
2019-05-23T15:32:51.817Z,34.25
2019-05-23T15:35:19.253Z,36.09
2019-05-23T15:37:46.748Z,33.79
2019-05-23T15:40:14.154Z,34.84
2019-05-23T15:42:41.618Z,34.15
2019-05-23T15:45:09.087Z,33.32
2019-05-23T15:47:36.563Z,34.02
2019-05-23T15:50:10.869Z,34.19
2019-05-23T15:52:44.497Z,34.18
2019-05-23T15:55:13.881Z,34.15
2019-05-23T15:57:44.875Z,32.94
2019-05-23T16:00:30.149Z,33.97
2019-05-23T16:02:57.587Z,33.56
2019-05-23T16:05:25.037Z,35.55
2019-05-23T16:07:52.515Z,33.00
2019-05-23T16:10:19.975Z,33.35
2019-05-23T16:12:47.427Z,33.23
2019-05-23T16:15:14.864Z,33.19
2019-05-23T16:17:42.325Z,34.57
2019-05-23T16:20:09.752Z,34.33
2019-05-23T16:22:37.192Z,35.34
2019-05-23T16:25:04.672Z,34.86
2019-05-23T16:27:32.168Z,34.08
2019-05-23T16:29:59.594Z,33.71
2019-05-23T16:32:27.471Z,33.98
2019-05-23T16:34:54.914Z,35.53
2019-05-23T16:37:22.363Z,33.89
2019-05-23T16:39:50.307Z,33.40
2019-05-23T16:42:17.392Z,33.78
2019-05-23T16:44:44.846Z,35.81
2019-05-23T16:47:12.306Z,34.09
2019-05-23T16:49:41.558Z,35.09
2019-05-23T16:52:08.998Z,34.84
2019-05-23T16:54:36.487Z,34.23
2019-05-23T16:57:09.452Z,34.61
2019-05-23T16:59:53.573Z,35.25
2019-05-23T17:02:22.419Z,34.93
2019-05-23T17:05:09.434Z,36.00
2019-05-23T17:07:37.727Z,36.69
2019-05-23T17:10:09.323Z,36.44
2019-05-23T17:12:35.956Z,37.19
2019-05-23T17:15:03.407Z,35.86
2019-05-23T17:18:02.319Z,35.80
2019-05-23T17:20:20.712Z,36.76
2019-05-23T17:22:53.459Z,35.84
2019-05-23T17:25:21.862Z,36.81
2019-05-23T17:27:49.686Z,36.59
2019-05-23T17:30:32.939Z,37.52
2019-05-23T17:33:00.372Z,36.48
2019-05-23T17:35:28.349Z,37.57
2019-05-23T17:37:55.775Z,36.39
2019-05-23T17:40:25.282Z,37.79
2019-05-23T17:42:50.722Z,38.47
2019-05-23T17:45:18.166Z,37.25
2019-05-23T17:47:45.595Z,38.50
2019-05-23T17:50:13.063Z,37.18
2019-05-23T17:52:40.499Z,37.08
2019-05-23T17:55:07.963Z,38.02
2019-05-23T17:57:35.412Z,36.83
2019-05-23T18:00:02.884Z,37.89
2019-05-23T18:02:30.288Z,36.91
2019-05-23T18:04:57.749Z,37.87
2019-05-23T18:07:25.232Z,37.58
2019-05-23T18:09:52.744Z,37.16
2019-05-23T18:12:20.245Z,38.09
2019-05-23T18:14:47.735Z,37.22
2019-05-23T18:17:15.360Z,39.80
2019-05-23T18:19:42.805Z,38.13
2019-05-23T18:22:10.434Z,39.14
2019-05-23T18:24:38.124Z,38.79
2019-05-23T18:27:05.779Z,37.96
2019-05-23T18:29:33.302Z,39.24
2019-05-23T18:32:00.763Z,40.71
2019-05-23T18:34:28.345Z,40.46
2019-05-23T18:36:55.832Z,39.21
2019-05-23T18:39:23.402Z,39.83
2019-05-23T18:41:50.842Z,40.00
2019-05-23T18:44:18.318Z,41.59
2019-05-23T18:46:48.278Z,40.98
2019-05-23T18:49:15.834Z,42.28
2019-05-23T18:51:43.275Z,40.29
2019-05-23T18:54:10.846Z,38.76
2019-05-23T18:56:38.406Z,38.03
2019-05-23T18:59:05.880Z,37.92
2019-05-23T19:01:34.340Z,38.61
2019-05-23T19:04:01.909Z,38.53
2019-05-23T19:06:30.333Z,37.78
2019-05-23T19:08:57.942Z,38.59
2019-05-23T19:11:25.561Z,37.91
2019-05-23T19:13:53.053Z,36.94
2019-05-23T19:16:20.546Z,36.94
2019-05-23T19:18:47.975Z,38.11
2019-05-23T19:21:15.430Z,38.56
2019-05-23T19:23:42.857Z,37.64
2019-05-23T19:26:10.306Z,37.91
2019-05-23T19:28:37.731Z,37.94
2019-05-23T19:31:05.301Z,36.75
2019-05-23T19:33:32.730Z,37.86
2019-05-23T19:36:01.248Z,37.18
2019-05-23T19:38:29.798Z,36.97
2019-05-23T19:40:57.323Z,38.01
2019-05-23T19:43:24.950Z,39.74
2019-05-23T19:45:52.451Z,40.10
2019-05-23T19:48:19.910Z,39.65
2019-05-23T19:50:47.420Z,40.04
2019-05-23T19:53:14.881Z,40.91
2019-05-23T19:55:42.355Z,41.09
2019-05-23T19:58:09.925Z,41.98
2019-05-23T20:00:37.436Z,43.40
2019-05-23T20:03:04.888Z,43.30
2019-05-23T20:05:35.472Z,41.45
2019-05-23T20:08:03.032Z,39.99
2019-05-23T20:10:30.456Z,39.05
2019-05-23T20:12:58.514Z,39.38
2019-05-23T20:15:26.029Z,39.77
2019-05-23T20:17:53.488Z,38.76
2019-05-23T20:20:20.900Z,40.02
2019-05-23T20:22:48.357Z,40.96
2019-05-23T20:25:15.846Z,41.15
2019-05-23T20:27:43.331Z,39.99
2019-05-23T20:30:10.807Z,40.80
2019-05-23T20:32:38.254Z,40.11
2019-05-23T20:35:05.710Z,41.31
2019-05-23T20:37:35.375Z,41.90
2019-05-23T20:40:00.611Z,43.71
2019-05-23T20:42:28.068Z,42.64
2019-05-23T20:44:55.536Z,41.37
2019-05-23T20:47:22.959Z,41.99
2019-05-23T20:49:50.399Z,41.47
2019-05-23T20:52:17.815Z,42.34
2019-05-23T20:54:45.255Z,41.51
2019-05-23T20:57:13.611Z,42.23
2019-05-23T20:59:41.736Z,42.55
2019-05-23T21:02:09.279Z,42.90
2019-05-23T21:04:36.777Z,41.99
2019-05-23T21:07:05.123Z,41.81
2019-05-23T21:09:32.999Z,41.19
2019-05-23T21:12:00.461Z,41.82
2019-05-23T21:14:27.921Z,42.44
2019-05-23T21:16:55.358Z,43.36
2019-05-23T21:19:22.801Z,44.13
2019-05-23T21:21:50.256Z,42.05
2019-05-23T21:24:17.770Z,42.39
2019-05-23T21:26:45.490Z,42.71
2019-05-23T21:29:12.947Z,42.45
2019-05-23T21:31:40.432Z,42.52
2019-05-23T21:34:07.871Z,42.50
2019-05-23T21:36:35.329Z,42.60
2019-05-23T21:39:03.963Z,43.08
2019-05-23T21:41:31.532Z,43.81
2019-05-23T21:43:59.416Z,43.22
2019-05-23T21:46:26.833Z,43.30
2019-05-23T21:48:54.348Z,43.21
2019-05-23T21:51:21.897Z,42.40
2019-05-23T21:53:49.483Z,42.22
2019-05-23T21:56:17.051Z,42.23
2019-05-23T21:58:44.612Z,43.74
2019-05-23T22:01:26.946Z,43.63
2019-05-23T22:03:54.963Z,43.95
2019-05-23T22:06:22.456Z,44.00
2019-05-23T22:08:50.111Z,44.29
2019-05-23T22:11:17.599Z,44.01
2019-05-23T22:13:45.260Z,43.74
2019-05-23T22:16:12.701Z,43.09
2019-05-23T22:18:40.260Z,43.97
2019-05-23T22:21:07.748Z,43.98
2019-05-23T22:23:35.227Z,44.67
2019-05-23T22:26:02.711Z,45.69
2019-05-23T22:28:30.271Z,46.36
2019-05-23T22:30:57.723Z,47.40
2019-05-23T22:33:26.551Z,47.08
2019-05-23T22:35:53.991Z,47.36
2019-05-23T22:38:21.457Z,46.75
2019-05-23T22:40:49.508Z,47.74
2019-05-23T22:43:21.045Z,48.22
2019-05-23T22:45:44.663Z,47.96
2019-05-23T22:48:12.295Z,47.72
2019-05-23T22:50:39.726Z,45.80
2019-05-23T22:53:07.327Z,46.08
2019-05-23T22:55:35.520Z,45.11
2019-05-23T22:58:03.232Z,45.00
2019-05-23T23:00:33.102Z,43.85
2019-05-23T23:03:00.930Z,44.34
2019-05-23T23:05:28.354Z,45.57
2019-05-23T23:07:55.854Z,47.09
2019-05-23T23:10:23.375Z,47.47
2019-05-23T23:12:50.856Z,47.26
2019-05-23T23:15:18.337Z,46.73
2019-05-23T23:17:45.766Z,46.98
2019-05-23T23:20:13.210Z,47.24
2019-05-23T23:22:40.647Z,47.41
2019-05-23T23:25:08.255Z,45.95
2019-05-23T23:27:36.270Z,45.99
2019-05-23T23:30:03.742Z,46.63
2019-05-23T23:32:31.499Z,46.50
2019-05-23T23:34:58.957Z,45.97
2019-05-23T23:37:26.437Z,47.37
2019-05-23T23:39:53.897Z,48.14
2019-05-23T23:42:21.440Z,48.75
2019-05-23T23:44:48.584Z,48.73
2019-05-23T23:47:21.807Z,49.58
2019-05-23T23:49:54.841Z,48.62
2019-05-23T23:52:27.980Z,48.16
2019-05-23T23:55:01.335Z,47.63
2019-05-23T23:57:34.385Z,47.12
